Avon, CO

5:29 PM MDT on September 02, 2015 (GMT -0600)
Whiskey Hill, EagleVail | | Change Station
CLOSE
Current Station
Personal Weather Station
Location: Avon, CO
Elevation: 7959 ft
Nearby Weather Stations

Elev 7959 ft 39.61 °N, 106.48 °W | Updated 14 minutes ago

Partly Cloudy
Partly Cloudy
69.8 °F
Feels Like 69.8 °F
N
0.5
Wind Variable Wind from SW
Gusts 4.9 mph

Today
High -- | Low -- °F
--% Chance of Precip.
Yesterday
High -- | Low -- °F
Precip. -- in
6:35 AM 7:35 PM
Waning Gibbous, 76% visible
Pressure 30.17 in
Visibility 10.0 miles
Clouds Scattered Clouds 10000 ft
Dew Point 26 °F
Humidity 19%
Rainfall 0.00 in
Snow Depth Not available.
UV 3 out of 12
Pollen 10.50 out of 12
Air Quality Not available.
Flu Activity Not available.
METAR KEGE 022253Z 28011KT 10SM SCT100 26/06 A3017
Pressure 30.17 in
Visibility 10.0 miles
Clouds Scattered Clouds 10000 ft
Dew Point 26 °F
Humidity 19%
Rainfall 0.00 in
Snow Depth Not available.
UV 3 out of 12
Pollen 10.50 out of 12
Air Quality Not available.
Flu Activity Not available.
METAR KEGE 022253Z 28011KT 10SM SCT100 26/06 A3017

10-Day Weather Forecast

×

Almanac

Astronomy

Sep. 02, 2015 Rise Set
Actual Time
Civil Twilight
Nautical Twilight
Astronomical Twilight
Moon
Length of Visible Light
Length of Day
Tomorrow will be .
, % of the Moon is Illuminated

Today's Extremes

State Highs State Lows

Community

WunderPhotos

Upload Photos

1,851,826 photos uploaded!

WunderBlogs® & News

Nearby

Air Quality

  Air Quality AQ Index Pollutant
Not available.

Snow Depth

Station Depth Elevation

Earthquake Activity

City Distance Mag. Time & Date
Minimum magnitude displayed is 2.5.

Coastal Water Temperatures

Place Temperature

Stations

Nearby Weather Stations

Station Location Temp. Windchill Dew Point Humidity Wind Precip. Elev Updated Type